Time,TemperatureF,DewpointF,PressureIn,WindDirection,WindDirectionDegrees,WindSpeedMPH,WindSpeedGustMPH,Humidity,HourlyPrecipIn,Conditions,Clouds,dailyrainin,SoftwareType,DateUTC
2013-08-07 00:01:00,71.0,70.0,30.05,ENE,67,0.0,0.0,97,0.00,,,0.51,,2013-08-07 04:01:00,
2013-08-07 00:21:00,71.0,70.0,30.05,ENE,67,0.0,0.0,98,0.00,,,0.51,,2013-08-07 04:21:00,
2013-08-07 00:33:00,71.0,70.0,30.05,ENE,67,0.0,0.0,98,0.00,,,0.51,,2013-08-07 04:33:00,
2013-08-07 00:43:00,71.0,70.0,30.05,ENE,67,0.0,0.0,98,0.00,,,0.51,,2013-08-07 04:43:00,
2013-08-07 00:52:00,71.0,70.0,30.04,ENE,67,0.0,0.0,98,0.00,,,0.51,,2013-08-07 04:52:00,
2013-08-07 01:02:00,71.0,70.0,30.04,ENE,67,0.0,0.0,98,0.00,,,0.51,,2013-08-07 05:02:00,
2013-08-07 01:22:00,71.0,70.0,30.03,ENE,67,0.0,0.0,98,0.00,,,0.51,,2013-08-07 05:22:00,
2013-08-07 01:32:00,72.0,71.0,30.03,ENE,67,0.0,0.0,98,0.00,,,0.51,,2013-08-07 05:32:00,
2013-08-07 01:43:00,72.0,71.0,30.03,ENE,67,0.0,0.0,98,0.00,,,0.51,,2013-08-07 05:43:00,
2013-08-07 01:52:00,72.0,71.0,30.03,ENE,67,0.0,0.0,98,0.00,,,0.51,,2013-08-07 05:52:00,
2013-08-07 02:02:00,72.0,71.0,30.03,ENE,67,0.0,0.0,98,0.00,,,0.51,,2013-08-07 06:02:00,
2013-08-07 02:11:00,72.0,71.0,30.03,ENE,67,0.0,0.0,98,0.00,,,0.51,,2013-08-07 06:11:00,
2013-08-07 02:22:00,72.0,71.0,30.03,ENE,67,0.0,0.0,98,0.00,,,0.51,,2013-08-07 06:22:00,
2013-08-07 02:32:00,72.0,71.0,30.03,ENE,67,0.0,0.0,98,0.00,,,0.51,,2013-08-07 06:32:00,
2013-08-07 02:43:00,72.0,71.0,30.03,ENE,67,0.0,0.0,98,0.00,,,0.51,,2013-08-07 06:43:00,
2013-08-07 02:52:00,72.0,71.0,30.03,ENE,67,0.0,0.0,98,0.00,,,0.51,,2013-08-07 06:52:00,
2013-08-07 03:01:00,72.0,71.0,30.03,ENE,67,0.0,0.0,98,0.00,,,0.51,,2013-08-07 07:01:00,
2013-08-07 03:12:00,72.0,71.0,30.03,ENE,67,0.0,0.0,98,0.00,,,0.51,,2013-08-07 07:12:00,
2013-08-07 03:22:00,72.0,71.0,30.03,ENE,67,0.0,0.0,98,0.00,,,0.51,,2013-08-07 07:22:00,
2013-08-07 03:33:00,72.0,71.0,30.03,ENE,67,0.0,0.0,98,0.00,,,0.51,,2013-08-07 07:33:00,
2013-08-07 03:43:00,72.0,71.0,30.03,ENE,67,0.0,0.0,98,0.00,,,0.51,,2013-08-07 07:43:00,
2013-08-07 03:52:00,72.0,71.0,30.03,ENE,67,0.0,0.0,98,0.00,,,0.51,,2013-08-07 07:52:00,
2013-08-07 04:02:00,72.0,71.0,30.03,ENE,67,0.0,0.0,98,0.00,,,0.51,,2013-08-07 08:02:00,
2013-08-07 04:11:00,72.0,71.0,30.03,ENE,67,0.0,0.0,98,0.00,,,0.51,,2013-08-07 08:11:00,
2013-08-07 04:32:00,72.0,71.0,30.04,ENE,67,0.0,0.0,98,0.00,,,0.51,,2013-08-07 08:32:00,
2013-08-07 04:44:00,72.0,71.0,30.03,ENE,67,0.0,0.0,98,0.00,,,0.51,,2013-08-07 08:44:00,
2013-08-07 04:52:00,72.0,71.0,30.03,ENE,67,0.0,0.0,98,0.00,,,0.51,,2013-08-07 08:52:00,
2013-08-07 05:02:00,72.0,71.0,30.03,ENE,67,0.0,0.0,98,0.00,,,0.51,,2013-08-07 09:02:00,
2013-08-07 05:43:00,72.0,71.0,30.05,ENE,67,0.0,0.0,98,0.00,,,0.51,,2013-08-07 09:43:00,
2013-08-07 06:43:00,72.0,71.0,30.05,ENE,67,0.0,0.0,98,0.00,,,0.51,,2013-08-07 10:43:00,
2013-08-07 07:32:00,72.0,71.0,30.06,ENE,67,0.0,0.0,98,0.00,,,0.51,,2013-08-07 11:32:00,
2013-08-07 07:52:00,72.0,71.0,30.06,ENE,66,0.0,0.0,98,0.00,,,0.51,,2013-08-07 11:52:00,
2013-08-07 08:02:00,72.0,71.0,30.06,ENE,67,0.0,0.0,98,0.00,,,0.51,,2013-08-07 12:02:00,
2013-08-07 08:33:00,73.0,72.0,30.07,ENE,68,0.0,0.0,98,0.01,,,0.52,,2013-08-07 12:33:00,
2013-08-07 08:43:00,73.0,72.0,30.07,ENE,68,0.0,0.0,98,0.01,,,0.52,,2013-08-07 12:43:00,
2013-08-07 08:52:00,73.0,72.0,30.07,ENE,68,0.0,0.0,98,0.01,,,0.52,,2013-08-07 12:52:00,
2013-08-07 09:11:00,74.0,73.0,30.08,ENE,68,0.0,0.0,98,0.01,,,0.52,,2013-08-07 13:11:00,
2013-08-07 10:02:00,76.0,74.0,30.09,ENE,75,0.0,1.0,94,0.00,,,0.52,,2013-08-07 14:02:00,
2013-08-07 10:12:00,76.0,74.0,30.09,ENE,75,0.0,1.0,94,0.00,,,0.52,,2013-08-07 14:12:00,
2013-08-07 10:22:00,76.0,74.0,30.09,East,94,1.0,2.0,92,0.00,,,0.52,,2013-08-07 14:22:00,
2013-08-07 10:33:00,78.0,74.0,30.09,East,94,0.0,2.0,89,0.00,,,0.52,,2013-08-07 14:33:00,
2013-08-07 10:43:00,79.0,74.0,30.09,NE,37,1.0,3.0,85,0.00,,,0.52,,2013-08-07 14:43:00,
2013-08-07 10:52:00,80.0,74.0,30.08,South,172,0.0,4.0,81,0.00,,,0.52,,2013-08-07 14:52:00,
2013-08-07 11:02:00,81.0,73.0,30.08,NE,37,1.0,5.0,77,0.00,,,0.52,,2013-08-07 15:02:00,
2013-08-07 11:12:00,82.0,74.0,30.08,SE,143,2.0,5.0,77,0.00,,,0.52,,2013-08-07 15:12:00,
2013-08-07 11:22:00,82.0,73.0,30.08,SE,145,1.0,6.0,75,0.00,,,0.52,,2013-08-07 15:22:00,
2013-08-07 11:33:00,83.0,73.0,30.08,ESE,113,3.0,5.0,73,0.00,,,0.52,,2013-08-07 15:33:00,
2013-08-07 11:53:00,84.0,74.0,30.08,NE,56,1.0,3.0,71,0.00,,,0.52,,2013-08-07 15:53:00,
2013-08-07 12:02:00,84.0,75.0,30.09,East,84,2.0,5.0,74,0.00,,,0.52,,2013-08-07 16:02:00,
2013-08-07 12:33:00,86.0,76.0,30.09,ESE,105,0.0,3.0,72,0.00,,,0.52,,2013-08-07 16:33:00,
2013-08-07 12:43:00,86.0,73.0,30.09,NE,51,0.0,3.0,66,0.00,,,0.52,,2013-08-07 16:43:00,
2013-08-07 12:53:00,86.0,73.0,30.09,WNW,284,1.0,3.0,66,0.00,,,0.52,,2013-08-07 16:53:00,
2013-08-07 13:33:00,87.0,72.0,30.08,West,259,0.0,1.0,62,0.00,,,0.52,,2013-08-07 17:33:00,
2013-08-07 13:43:00,87.0,72.0,30.07,East,83,0.0,4.0,62,0.00,,,0.52,,2013-08-07 17:43:00,
2013-08-07 13:52:00,88.0,72.0,30.07,North,9,1.0,3.0,60,0.00,,,0.52,,2013-08-07 17:52:00,
2013-08-07 14:02:00,88.0,74.0,30.07,NE,49,2.0,3.0,63,0.00,,,0.52,,2013-08-07 18:02:00,
2013-08-07 14:11:00,87.0,71.0,30.07,NNE,22,0.0,3.0,60,0.00,,,0.52,,2013-08-07 18:11:00,
2013-08-07 14:52:00,88.0,73.0,30.05,NE,53,0.0,2.0,62,0.00,,,0.52,,2013-08-07 18:52:00,
2013-08-07 15:01:00,88.0,73.0,30.05,NE,49,1.0,3.0,61,0.00,,,0.52,,2013-08-07 19:01:00,
2013-08-07 15:11:00,87.0,72.0,30.05,North,6,1.0,3.0,61,0.00,,,0.52,,2013-08-07 19:11:00,
2013-08-07 15:32:00,87.0,74.0,30.04,NE,44,1.0,2.0,65,0.00,,,0.52,,2013-08-07 19:32:00,
2013-08-07 15:52:00,89.0,75.0,30.03,SSW,201,1.0,2.0,63,0.00,,,0.52,,2013-08-07 19:52:00,
2013-08-07 16:02:00,88.0,74.0,30.03,North,352,1.0,2.0,64,0.00,,,0.52,,2013-08-07 20:02:00,
2013-08-07 16:11:00,88.0,72.0,30.02,ENE,62,2.0,3.0,60,0.00,,,0.52,,2013-08-07 20:11:00,
2013-08-07 16:43:00,86.0,75.0,30.02,NE,42,1.0,2.0,69,0.00,,,0.38,,2013-08-07 20:43:00,
2013-08-07 16:52:00,86.0,74.0,30.02,ENE,68,2.0,3.0,68,0.00,,,0.38,,2013-08-07 20:52:00,
2013-08-07 17:43:00,88.0,75.0,30.02,ENE,71,0.0,3.0,66,0.00,,,0.02,,2013-08-07 21:43:00,
2013-08-07 17:52:00,88.0,75.0,30.01,NE,51,0.0,1.0,65,0.00,,,0.02,,2013-08-07 21:52:00,
2013-08-07 18:01:00,88.0,74.0,30.01,WSW,247,0.0,4.0,64,0.00,,,0.02,,2013-08-07 22:01:00,
2013-08-07 18:12:00,87.0,76.0,30.01,NNW,336,0.0,1.0,71,0.00,,,0.02,,2013-08-07 22:12:00,
2013-08-07 18:22:00,87.0,76.0,30.01,SW,214,1.0,2.0,70,0.00,,,0.01,,2013-08-07 22:22:00,
2013-08-07 18:52:00,84.0,76.0,30.01,WSW,253,0.0,1.0,78,0.00,,,0.01,,2013-08-07 22:52:00,
2013-08-07 19:11:00,83.0,76.0,30.00,WSW,252,0.0,0.0,80,0.00,,,0.01,,2013-08-07 23:11:00,
2013-08-07 19:22:00,82.0,75.0,30.01,WSW,253,0.0,1.0,80,0.00,,,0.01,,2013-08-07 23:22:00,
2013-08-07 19:32:00,82.0,76.0,30.01,WSW,253,0.0,1.0,82,0.00,,,0.01,,2013-08-07 23:32:00,
2013-08-07 19:43:00,81.0,76.0,30.01,WSW,252,0.0,1.0,86,0.00,,,0.01,,2013-08-07 23:43:00,
2013-08-07 19:52:00,80.0,75.0,30.01,WSW,253,0.0,0.0,86,0.00,,,0.01,,2013-08-07 23:52:00,
2013-08-07 20:01:00,80.0,75.0,30.01,WSW,253,0.0,0.0,86,0.00,,,0.01,,2013-08-08 00:01:00,
2013-08-07 20:11:00,79.0,74.0,30.01,WSW,253,0.0,0.0,86,0.00,,,0.01,,2013-08-08 00:11:00,
2013-08-07 20:22:00,79.0,75.0,30.01,WSW,252,0.0,0.0,87,0.00,,,0.01,,2013-08-08 00:22:00,
2013-08-07 20:32:00,78.0,74.0,30.01,WSW,253,0.0,0.0,88,0.00,,,0.01,,2013-08-08 00:32:00,
2013-08-07 20:42:00,78.0,75.0,30.01,WSW,253,0.0,0.0,90,0.00,,,0.01,,2013-08-08 00:42:00,
2013-08-07 20:52:00,77.0,74.0,30.01,WSW,253,0.0,0.0,90,0.00,,,0.01,,2013-08-08 00:52:00,
2013-08-07 21:02:00,77.0,74.0,30.01,WSW,253,0.0,0.0,91,0.00,,,0.01,,2013-08-08 01:02:00,
2013-08-07 21:11:00,77.0,74.0,30.01,WNW,283,0.0,2.0,92,0.00,,,0.01,,2013-08-08 01:11:00,
2013-08-07 21:22:00,77.0,74.0,30.02,WNW,283,0.0,1.0,91,0.00,,,0.01,,2013-08-08 01:22:00,
2013-08-07 21:32:00,76.0,73.0,30.02,WNW,283,0.0,1.0,91,0.00,,,0.01,,2013-08-08 01:32:00,
2013-08-07 21:43:00,76.0,74.0,30.02,West,281,0.0,1.0,92,0.00,,,0.01,,2013-08-08 01:43:00,
2013-08-07 21:52:00,76.0,74.0,30.03,West,281,0.0,1.0,92,0.00,,,0.01,,2013-08-08 01:52:00,
2013-08-07 22:02:00,76.0,74.0,30.03,West,281,0.0,0.0,93,0.00,,,0.01,,2013-08-08 02:02:00,
2013-08-07 22:52:00,75.0,73.0,30.04,West,281,0.0,1.0,94,0.00,,,0.01,,2013-08-08 02:52:00,
2013-08-07 23:12:00,75.0,73.0,30.05,West,281,0.0,0.0,95,0.00,,,0.01,,2013-08-08 03:12:00,
2013-08-07 23:32:00,74.0,72.0,30.05,West,281,0.0,0.0,95,0.00,,,0.01,,2013-08-08 03:32:00,
2013-08-07 23:52:00,74.0,72.0,30.05,West,281,0.0,0.0,95,0.00,,,0.01,,2013-08-08 03:52:00,